Time;durP1;ratioP1;P1;durP2;ratioP2;P2;SDS_P1;SDS_P2;PMS_P1;PMS_P2;Temp;Humidity;BMP_temperature;BMP_pressure;BME280_temperature;BME280_humidity;BME280_pressure;Samples;Min_cycle;Max_cycle;Signal;HPM_P1;HPM_P2
2021/01/15 00:01:03;;;;;;;0.70;0.38;;;20.90;38.50;;;;;;5072464;28;20029;-86
2021/01/15 00:03:35;;;;;;;0.90;0.40;;;20.90;38.50;;;;;;5070162;28;20031;-87
2021/01/15 00:06:05;;;;;;;0.80;0.50;;;20.90;38.50;;;;;;5074398;28;20395;-86
2021/01/15 00:08:37;;;;;;;1.35;0.52;;;20.90;38.50;;;;;;5080992;28;20028;-86
2021/01/15 00:11:03;;;;;;;0.98;0.30;;;20.80;38.50;;;;;;5086675;28;20073;-88
2021/01/15 00:13:29;;;;;;;0.98;0.40;;;20.80;38.50;;;;;;5081899;28;20029;-87
2021/01/15 00:15:55;;;;;;;1.02;0.45;;;20.80;38.50;;;;;;5085844;28;20144;-86
2021/01/15 00:18:21;;;;;;;0.70;0.35;;;20.80;38.60;;;;;;5096663;28;20084;-85
2021/01/15 00:20:46;;;;;;;1.02;0.45;;;20.70;38.50;;;;;;5110449;28;20075;-84
2021/01/15 00:23:12;;;;;;;0.93;0.50;;;20.70;38.50;;;;;;5082277;28;20082;-84
2021/01/15 00:25:38;;;;;;;0.77;0.40;;;20.70;38.50;;;;;;5098023;28;20024;-84
2021/01/15 00:28:04;;;;;;;1.10;0.50;;;20.70;38.60;;;;;;5102783;28;20040;-85
2021/01/15 00:30:29;;;;;;;0.57;0.30;;;20.60;38.60;;;;;;5086627;28;20024;-86
2021/01/15 00:32:55;;;;;;;1.25;0.57;;;20.60;38.70;;;;;;5088165;28;20047;-85
2021/01/15 00:35:20;;;;;;;0.80;0.40;;;20.60;38.70;;;;;;5075148;28;20064;-85
2021/01/15 00:37:46;;;;;;;1.45;0.40;;;20.60;38.70;;;;;;5069541;28;20016;-84
2021/01/15 00:40:12;;;;;;;1.10;0.47;;;20.50;38.60;;;;;;5067346;28;20033;-84
2021/01/15 00:42:38;;;;;;;2.30;0.35;;;20.60;38.70;;;;;;5090352;28;20035;-84
2021/01/15 00:45:04;;;;;;;1.13;0.50;;;20.50;38.60;;;;;;5096719;28;20036;-84
2021/01/15 00:47:31;;;;;;;0.90;0.32;;;20.50;38.70;;;;;;5079448;28;20028;-83
2021/01/15 00:49:56;;;;;;;1.05;0.47;;;20.50;38.70;;;;;;5086028;28;20116;-87
2021/01/15 00:52:22;;;;;;;1.00;0.38;;;20.50;38.70;;;;;;5078862;28;20056;-85
2021/01/15 00:54:47;;;;;;;1.13;0.40;;;20.50;38.70;;;;;;5070270;28;20012;-86
2021/01/15 00:57:13;;;;;;;1.20;0.70;;;20.40;38.60;;;;;;5096455;28;20248;-87
2021/01/15 00:59:38;;;;;;;1.20;0.70;;;20.50;38.70;;;;;;5080770;28;20029;-86
2021/01/15 01:02:04;;;;;;;1.90;0.45;;;20.40;38.60;;;;;;5072674;28;20040;-86
2021/01/15 01:04:30;;;;;;;1.38;0.57;;;20.40;38.60;;;;;;5090417;28;20078;-86
2021/01/15 01:06:57;;;;;;;1.25;0.30;;;20.40;38.60;;;;;;5090819;28;20033;-86
2021/01/15 01:09:24;;;;;;;1.27;0.57;;;20.40;38.60;;;;;;5071826;28;20090;-86
2021/01/15 01:11:49;;;;;;;0.82;0.30;;;20.40;38.70;;;;;;5080133;28;20043;-83
2021/01/15 01:14:15;;;;;;;0.68;0.38;;;20.40;38.60;;;;;;5074480;28;20382;-86
2021/01/15 01:16:41;;;;;;;0.90;0.38;;;20.30;38.60;;;;;;5069338;28;20059;-87
2021/01/15 01:19:06;;;;;;;0.88;0.32;;;20.30;38.60;;;;;;5086432;28;20442;-86
2021/01/15 01:21:32;;;;;;;2.72;0.50;;;20.30;38.50;;;;;;5082368;28;20025;-84
2021/01/15 01:23:58;;;;;;;0.88;0.30;;;20.30;38.60;;;;;;5079389;28;20020;-86
2021/01/15 01:26:24;;;;;;;0.73;0.30;;;20.30;38.60;;;;;;5089764;28;20165;-85
2021/01/15 01:28:50;;;;;;;0.55;0.25;;;20.20;38.60;;;;;;5095908;28;20066;-84
2021/01/15 01:31:17;;;;;;;0.98;0.45;;;20.30;38.50;;;;;;5074766;28;20024;-86
2021/01/15 01:33:43;;;;;;;0.70;0.30;;;20.20;38.50;;;;;;5083980;28;20029;-86
2021/01/15 01:36:10;;;;;;;1.00;0.35;;;20.20;38.60;;;;;;5078646;28;20108;-86
2021/01/15 01:38:37;;;;;;;0.63;0.40;;;20.20;38.60;;;;;;5067548;28;20138;-87
2021/01/15 01:41:03;;;;;;;1.30;0.45;;;20.20;38.50;;;;;;5088507;28;20042;-85
2021/01/15 01:43:28;;;;;;;0.60;0.20;;;20.20;38.50;;;;;;5072698;28;20123;-86
2021/01/15 01:45:57;;;;;;;0.90;0.30;;;20.10;38.50;;;;;;5071636;28;20124;-84
2021/01/15 01:48:23;;;;;;;0.73;0.20;;;20.10;38.50;;;;;;5079145;28;20028;-87
2021/01/15 01:50:52;;;;;;;0.63;0.30;;;20.10;38.50;;;;;;5097516;28;20028;-85
2021/01/15 01:53:20;;;;;;;0.85;0.38;;;20.10;38.50;;;;;;5081038;28;20054;-85
2021/01/15 01:55:47;;;;;;;1.27;0.40;;;20.10;38.50;;;;;;5061858;28;20046;-86
2021/01/15 01:58:15;;;;;;;0.80;0.30;;;20.10;38.50;;;;;;5067124;28;20032;-84
2021/01/15 02:00:43;;;;;;;0.60;0.30;;;20.10;38.40;;;;;;5058942;28;20055;-84
2021/01/15 02:03:09;;;;;;;0.80;0.40;;;20.10;38.40;;;;;;5065702;28;20032;-85
2021/01/15 02:05:35;;;;;;;1.13;0.55;;;20.00;38.30;;;;;;5059590;28;20081;-85
2021/01/15 02:08:00;;;;;;;1.48;0.40;;;20.00;38.40;;;;;;5070478;28;20132;-85
2021/01/15 02:11:07;;;;;;;0.90;0.40;;;20.00;38.40;;;;;;5059940;28;20473;-87
2021/01/15 02:13:51;;;;;;;0.50;0.30;;;20.00;38.50;;;;;;5072083;28;20135;-85
2021/01/15 02:16:23;;;;;;;1.08;0.40;;;20.00;38.50;;;;;;5076581;28;20021;-86
2021/01/15 02:19:17;;;;;;;0.80;0.40;;;20.00;38.40;;;;;;5064713;28;20186;-86
2021/01/15 02:22:01;;;;;;;0.85;0.43;;;20.00;38.40;;;;;;5070399;28;20070;-85
2021/01/15 02:24:36;;;;;;;0.50;0.25;;;20.00;38.40;;;;;;5069810;28;20115;-85
2021/01/15 02:27:51;;;;;;;0.75;0.35;;;20.00;38.40;;;;;;5068896;28;20093;-86
2021/01/15 02:30:36;;;;;;;1.67;0.40;;;20.00;38.40;;;;;;5068480;28;20039;-84
2021/01/15 02:33:28;;;;;;;0.77;0.30;;;19.90;38.40;;;;;;5088012;28;20020;-85
2021/01/15 02:36:23;;;;;;;0.88;0.45;;;19.90;38.40;;;;;;5082322;28;20031;-84
2021/01/15 02:39:03;;;;;;;0.70;0.30;;;19.90;38.40;;;;;;5097128;28;20055;-86
2021/01/15 02:41:30;;;;;;;0.80;0.45;;;19.90;38.40;;;;;;5091246;28;20121;-83
2021/01/15 02:44:10;;;;;;;0.60;0.30;;;19.90;38.40;;;;;;5095017;28;20035;-83
2021/01/15 02:46:51;;;;;;;0.82;0.30;;;19.90;38.40;;;;;;5078926;28;20108;-86
2021/01/15 02:49:17;;;;;;;0.63;0.28;;;19.90;38.50;;;;;;5073558;28;20032;-86
2021/01/15 02:51:44;;;;;;;0.70;0.25;;;19.80;38.30;;;;;;5099785;28;20031;-85
2021/01/15 02:54:10;;;;;;;0.85;0.30;;;19.80;38.30;;;;;;5100239;28;20471;-86
2021/01/15 02:56:36;;;;;;;0.75;0.20;;;19.80;38.30;;;;;;5082596;28;20036;-85
2021/01/15 02:59:06;;;;;;;1.05;0.40;;;19.80;38.40;;;;;;5081719;28;20035;-85
2021/01/15 03:01:36;;;;;;;0.98;0.38;;;19.80;38.30;;;;;;5090928;28;20054;-86
2021/01/15 03:04:28;;;;;;;0.90;0.50;;;19.80;38.40;;;;;;5076828;28;20025;-86
2021/01/15 03:07:02;;;;;;;1.17;0.40;;;19.70;38.30;;;;;;5083439;28;20040;-85
2021/01/15 03:09:32;;;;;;;0.88;0.30;;;19.70;38.30;;;;;;5071705;28;20085;-84
2021/01/15 03:12:00;;;;;;;0.85;0.30;;;19.70;38.20;;;;;;5079833;28;20017;-85
2021/01/15 03:14:28;;;;;;;0.95;0.30;;;19.70;38.30;;;;;;5066072;28;20020;-85
2021/01/15 03:16:55;;;;;;;1.00;0.40;;;19.70;38.30;;;;;;5081668;28;20050;-84
2021/01/15 03:19:21;;;;;;;0.68;0.43;;;19.70;38.30;;;;;;5090799;28;20036;-85
2021/01/15 03:21:50;;;;;;;0.80;0.30;;;19.70;38.20;;;;;;5082772;28;20028;-83
2021/01/15 03:24:16;;;;;;;1.70;0.30;;;19.70;38.30;;;;;;5084186;28;20047;-85
2021/01/15 03:26:42;;;;;;;0.90;0.57;;;19.70;38.40;;;;;;5086346;28;20032;-86
2021/01/15 03:29:14;;;;;;;0.80;0.43;;;19.70;38.40;;;;;;5090182;28;20040;-85
2021/01/15 03:31:58;;;;;;;1.60;0.60;;;19.70;38.20;;;;;;5090362;28;20039;-86
2021/01/15 03:34:42;;;;;;;0.80;0.50;;;19.70;38.50;;;;;;5093345;28;20047;-86
2021/01/15 03:37:26;;;;;;;0.80;0.47;;;19.60;38.30;;;;;;5089577;28;20442;-84
2021/01/15 03:39:52;;;;;;;0.95;0.38;;;19.60;38.40;;;;;;5070679;28;20044;-86
2021/01/15 03:42:18;;;;;;;0.75;0.35;;;19.60;38.20;;;;;;5078106;28;20125;-85
2021/01/15 03:44:44;;;;;;;1.02;0.50;;;19.60;38.40;;;;;;5080321;28;20081;-85
2021/01/15 03:47:09;;;;;;;0.88;0.40;;;19.60;38.20;;;;;;5096886;28;20028;-83
2021/01/15 03:49:35;;;;;;;0.70;0.35;;;19.60;38.20;;;;;;5091306;28;20062;-83
2021/01/15 03:52:01;;;;;;;0.57;0.30;;;19.60;38.30;;;;;;5082886;28;20381;-85
2021/01/15 03:54:26;;;;;;;0.98;0.40;;;19.60;38.30;;;;;;5076611;28;20031;-85
2021/01/15 03:56:52;;;;;;;0.73;0.30;;;19.60;38.30;;;;;;5067649;28;20030;-85
2021/01/15 03:59:18;;;;;;;0.98;0.45;;;19.60;38.20;;;;;;5087015;28;20044;-84
2021/01/15 04:01:45;;;;;;;0.52;0.30;;;19.60;38.40;;;;;;5086394;28;20682;-86
2021/01/15 04:04:10;;;;;;;0.80;0.50;;;19.60;38.20;;;;;;5085165;28;20039;-82
2021/01/15 04:06:36;;;;;;;1.33;0.30;;;19.50;38.30;;;;;;5092393;28;20051;-85
2021/01/15 04:09:03;;;;;;;0.90;0.40;;;19.50;38.40;;;;;;5082223;28;20415;-84
2021/01/15 04:11:29;;;;;;;0.70;0.35;;;19.50;38.30;;;;;;5065728;28;20226;-87
2021/01/15 04:13:54;;;;;;;1.52;0.60;;;19.50;38.30;;;;;;5094293;28;20491;-85
2021/01/15 04:16:20;;;;;;;0.77;0.45;;;19.50;38.30;;;;;;5074611;28;20386;-86
2021/01/15 04:18:45;;;;;;;1.55;0.50;;;19.50;38.40;;;;;;5073462;28;20052;-84
2021/01/15 04:21:15;;;;;;;1.35;0.73;;;19.50;38.30;;;;;;5078085;28;20059;-84
2021/01/15 04:23:44;;;;;;;3.40;0.45;;;19.50;38.30;;;;;;5075603;28;20040;-86
2021/01/15 04:26:16;;;;;;;2.28;0.47;;;19.50;38.30;;;;;;5070133;28;20108;-85
2021/01/15 04:28:42;;;;;;;1.02;0.30;;;19.50;38.30;;;;;;5087124;28;20111;-83
2021/01/15 04:31:08;;;;;;;1.33;0.60;;;19.40;38.40;;;;;;5098089;28;20613;-84
2021/01/15 04:33:34;;;;;;;1.67;0.40;;;19.40;38.40;;;;;;5069004;28;20028;-85
2021/01/15 04:36:00;;;;;;;0.60;0.30;;;19.40;38.40;;;;;;5073387;28;20059;-86
2021/01/15 04:38:26;;;;;;;1.73;0.50;;;19.40;38.30;;;;;;5066361;28;20478;-85
2021/01/15 04:40:57;;;;;;;1.15;0.50;;;19.40;38.40;;;;;;5077796;28;20092;-85
2021/01/15 04:43:27;;;;;;;1.20;0.60;;;19.40;38.30;;;;;;5081462;28;20024;-86
2021/01/15 04:45:54;;;;;;;1.45;0.45;;;19.40;38.30;;;;;;5068167;28;20068;-86
2021/01/15 04:48:21;;;;;;;3.40;0.47;;;19.40;38.40;;;;;;5065723;28;20024;-86
2021/01/15 04:50:49;;;;;;;0.80;0.50;;;19.30;38.40;;;;;;5079210;28;20024;-85
2021/01/15 04:53:19;;;;;;;0.85;0.40;;;19.40;38.40;;;;;;5086019;28;20043;-83
2021/01/15 04:55:45;;;;;;;0.75;0.30;;;19.40;38.30;;;;;;5062095;28;20222;-85
2021/01/15 04:58:12;;;;;;;0.70;0.30;;;19.40;38.30;;;;;;5084753;28;20226;-82
2021/01/15 05:00:41;;;;;;;1.10;0.70;;;19.30;38.20;;;;;;5075350;28;20622;-85
2021/01/15 05:03:08;;;;;;;0.57;0.32;;;19.40;38.40;;;;;;5070789;28;20038;-85
2021/01/15 05:05:42;;;;;;;1.20;0.52;;;19.30;38.20;;;;;;5071390;28;20038;-82
2021/01/15 05:08:12;;;;;;;4.03;0.73;;;19.30;38.60;;;;;;5068590;28;20024;-84
2021/01/15 05:10:40;;;;;;;0.90;0.43;;;19.30;38.40;;;;;;5073754;28;20055;-84
2021/01/15 05:13:09;;;;;;;1.40;0.50;;;19.30;38.40;;;;;;5064212;28;20024;-85
2021/01/15 05:15:39;;;;;;;1.25;0.47;;;19.30;38.40;;;;;;5082268;28;20024;-84
2021/01/15 05:18:06;;;;;;;0.80;0.40;;;19.30;38.30;;;;;;5067402;28;20035;-87
2021/01/15 05:20:33;;;;;;;1.52;0.45;;;19.30;38.40;;;;;;5077375;28;20032;-84
2021/01/15 05:23:06;;;;;;;1.10;0.65;;;19.30;38.40;;;;;;5071070;28;20020;-84
2021/01/15 05:25:34;;;;;;;1.25;0.57;;;19.20;38.30;;;;;;5081195;28;20078;-84
2021/01/15 05:28:00;;;;;;;0.80;0.47;;;19.30;38.30;;;;;;5058682;28;20209;-84
2021/01/15 05:30:27;;;;;;;1.20;0.55;;;19.30;38.20;;;;;;5078657;28;20016;-85
2021/01/15 05:32:59;;;;;;;0.80;0.50;;;19.30;38.30;;;;;;5082607;28;20031;-84
2021/01/15 05:35:44;;;;;;;0.90;0.47;;;19.30;38.30;;;;;;5067834;28;20107;-85
2021/01/15 05:38:15;;;;;;;0.75;0.30;;;19.20;38.40;;;;;;5059548;28;20039;-85
2021/01/15 05:40:42;;;;;;;1.60;0.50;;;19.20;38.40;;;;;;5075302;28;20020;-86
2021/01/15 05:43:19;;;;;;;1.67;0.65;;;19.20;38.30;;;;;;5079033;28;20052;-87
2021/01/15 05:46:23;;;;;;;1.25;0.55;;;19.20;38.40;;;;;;5065862;28;20021;-87
2021/01/15 05:48:50;;;;;;;0.93;0.57;;;19.20;38.40;;;;;;5073901;28;20039;-86
2021/01/15 05:51:30;;;;;;;2.10;0.40;;;19.20;38.50;;;;;;5091333;28;20077;-86
2021/01/15 05:54:00;;;;;;;1.30;0.52;;;19.20;38.30;;;;;;5080448;28;20470;-86
2021/01/15 05:56:36;;;;;;;0.95;0.40;;;19.20;38.30;;;;;;5083348;28;20017;-86
2021/01/15 05:59:07;;;;;;;0.93;0.50;;;19.20;38.40;;;;;;5068889;28;20088;-85
2021/01/15 06:02:11;;;;;;;1.97;0.60;;;19.20;38.40;;;;;;5069526;28;20061;-83
2021/01/15 06:04:37;;;;;;;0.73;0.43;;;19.20;38.40;;;;;;5065711;28;21059;-85
2021/01/15 06:07:06;;;;;;;1.05;0.77;;;19.10;38.40;;;;;;5070918;28;20043;-85
2021/01/15 06:09:32;;;;;;;1.60;0.57;;;19.10;38.30;;;;;;5067968;28;20036;-85
2021/01/15 06:12:24;;;;;;;0.82;0.43;;;19.10;38.40;;;;;;5086535;28;20097;-84
2021/01/15 06:14:58;;;;;;;0.88;0.50;;;19.10;38.40;;;;;;5074076;28;20055;-85
2021/01/15 06:17:25;;;;;;;1.27;0.70;;;19.10;38.40;;;;;;5068606;28;20611;-85
2021/01/15 06:19:53;;;;;;;0.90;0.55;;;19.10;38.40;;;;;;5086577;28;20027;-85
2021/01/15 06:22:28;;;;;;;1.02;0.43;;;19.10;38.80;;;;;;5074798;28;20054;-85
2021/01/15 06:25:07;;;;;;;0.90;0.43;;;19.20;38.80;;;;;;5062731;28;20025;-87
2021/01/15 06:27:35;;;;;;;0.80;0.30;;;19.40;38.50;;;;;;5081460;28;20032;-85
2021/01/15 06:30:07;;;;;;;0.98;0.40;;;19.60;38.10;;;;;;5064576;28;20032;-87
2021/01/15 06:32:33;;;;;;;;;;;19.70;37.90;;;;;;5068004;28;20074;-85
2021/01/15 06:34:58;;;;;;;0.60;0.35;;;19.90;37.80;;;;;;5069645;28;20329;-84
2021/01/15 06:37:24;;;;;;;1.15;0.43;;;19.90;37.60;;;;;;5071379;28;20032;-85
2021/01/15 06:40:10;;;;;;;1.05;0.32;;;20.00;37.50;;;;;;5074015;28;20095;-86
2021/01/15 06:42:47;;;;;;;0.65;0.25;;;20.00;37.40;;;;;;5068219;28;20113;-85
2021/01/15 06:45:14;;;;;;;0.73;0.30;;;20.00;37.40;;;;;;5100428;28;20029;-85
2021/01/15 06:47:46;;;;;;;0.85;0.52;;;20.10;37.40;;;;;;5089201;28;20020;-83
2021/01/15 06:50:16;;;;;;;0.85;0.47;;;20.20;37.40;;;;;;5085784;28;20020;-83
2021/01/15 06:52:50;;;;;;;0.93;0.35;;;20.20;37.20;;;;;;5102994;28;20123;-84
2021/01/15 06:55:18;;;;;;;0.70;0.30;;;20.30;37.20;;;;;;5084689;28;20032;-83
2021/01/15 06:57:54;;;;;;;1.13;0.30;;;20.40;37.10;;;;;;5079190;28;20039;-84
2021/01/15 07:00:22;;;;;;;0.95;0.30;;;20.40;37.00;;;;;;5095845;28;20031;-84
2021/01/15 07:02:57;;;;;;;1.20;0.30;;;20.40;36.90;;;;;;5072714;28;20091;-85
2021/01/15 07:05:26;;;;;;;0.60;0.40;;;20.50;37.00;;;;;;5074095;28;20219;-85
2021/01/15 07:07:54;;;;;;;0.70;0.30;;;20.50;36.90;;;;;;5095091;28;20039;-85
2021/01/15 07:10:20;;;;;;;0.88;0.50;;;20.50;36.90;;;;;;5072818;28;20028;-85
2021/01/15 07:12:53;;;;;;;1.00;0.43;;;20.50;36.90;;;;;;5088063;28;20074;-84
2021/01/15 07:15:21;;;;;;;0.85;0.32;;;20.60;36.90;;;;;;5068337;28;20071;-85
2021/01/15 07:17:47;;;;;;;0.70;0.30;;;20.60;36.90;;;;;;5093905;28;20024;-83
2021/01/15 07:20:15;;;;;;;0.70;0.35;;;20.60;36.90;;;;;;5078484;28;20032;-84
2021/01/15 07:22:45;;;;;;;1.10;0.55;;;20.60;36.90;;;;;;5076871;28;20048;-85
2021/01/15 07:25:12;;;;;;;1.70;0.63;;;20.70;36.90;;;;;;5089440;28;20032;-86
2021/01/15 07:27:39;;;;;;;0.70;0.52;;;20.80;36.80;;;;;;5077308;28;20040;-87
2021/01/15 07:30:15;;;;;;;0.77;0.30;;;20.70;36.70;;;;;;5094334;28;20058;-86
2021/01/15 07:32:41;;;;;;;0.77;0.30;;;20.70;36.80;;;;;;5074246;28;20111;-85
2021/01/15 07:35:14;;;;;;;0.80;0.40;;;20.70;36.80;;;;;;5096410;28;20047;-86
2021/01/15 07:37:40;;;;;;;2.15;0.60;;;20.60;36.90;;;;;;5078631;28;20111;-85
2021/01/15 07:40:17;;;;;;;1.00;0.60;;;20.60;36.90;;;;;;5076367;28;20079;-87
2021/01/15 07:43:03;;;;;;;0.80;0.50;;;20.60;36.90;;;;;;5076720;28;20432;-88
2021/01/15 07:45:32;;;;;;;1.23;0.55;;;20.60;37.00;;;;;;5092755;28;20423;-84
2021/01/15 07:48:01;;;;;;;1.40;0.85;;;20.50;37.00;;;;;;5073633;28;20032;-89
2021/01/15 07:50:32;;;;;;;1.42;0.60;;;20.50;37.10;;;;;;5078859;28;20099;-89
2021/01/15 07:53:24;;;;;;;1.15;0.85;;;20.40;37.10;;;;;;5077671;28;20115;-90
2021/01/15 07:55:53;;;;;;;2.63;0.80;;;20.40;37.10;;;;;;5064113;28;20039;-89
2021/01/15 07:58:45;;;;;;;1.13;0.85;;;20.40;37.10;;;;;;5077991;28;20093;-87
2021/01/15 08:01:16;;;;;;;;;;;20.50;36.90;;;;;;5091509;28;20220;-84
2021/01/15 08:03:54;;;;;;;2.33;0.83;;;20.40;36.90;;;;;;5102910;28;20363;-88
2021/01/15 08:06:20;;;;;;;2.35;0.55;;;20.40;37.10;;;;;;5072346;28;20149;-83
2021/01/15 08:08:57;;;;;;;1.10;0.77;;;20.40;37.30;;;;;;5075870;28;20396;-84
2021/01/15 08:11:23;;;;;;;1.40;1.17;;;20.40;37.40;;;;;;5086718;28;20401;-82
2021/01/15 08:13:49;;;;;;;1.08;0.70;;;20.30;37.50;;;;;;5091242;28;20028;-82
2021/01/15 08:16:15;;;;;;;1.58;1.30;;;20.30;37.80;;;;;;5086944;28;20051;-83
2021/01/15 08:18:41;;;;;;;1.10;1.00;;;20.30;37.90;;;;;;5093046;28;20020;-87
2021/01/15 08:21:08;;;;;;;2.55;1.33;;;20.30;38.10;;;;;;5076736;28;20137;-86
2021/01/15 08:23:33;;;;;;;1.67;1.15;;;20.30;38.30;;;;;;5075276;28;20020;-83
2021/01/15 08:26:06;;;;;;;1.98;1.13;;;20.30;38.00;;;;;;5095174;28;20025;-85
2021/01/15 08:28:33;;;;;;;4.18;1.38;;;20.30;37.90;;;;;;5050490;28;20040;-87
2021/01/15 08:31:01;;;;;;;2.60;1.92;;;20.30;38.10;;;;;;5064463;28;20024;-83
2021/01/15 08:33:28;;;;;;;1.88;1.20;;;20.30;38.40;;;;;;5083441;28;20027;-83
2021/01/15 08:35:55;;;;;;;2.40;1.13;;;20.30;38.50;;;;;;5073347;28;20089;-80
2021/01/15 08:38:35;;;;;;;1.35;1.25;;;20.20;38.40;;;;;;5082725;28;20024;-81
2021/01/15 08:41:12;;;;;;;2.20;1.50;;;20.20;38.60;;;;;;5078002;28;20076;-81
2021/01/15 08:43:39;;;;;;;4.53;1.60;;;20.10;38.70;;;;;;5069282;28;21336;-81
2021/01/15 08:46:05;;;;;;;1.38;1.27;;;20.10;38.60;;;;;;5090406;28;20100;-83
2021/01/15 08:48:31;;;;;;;3.05;0.98;;;20.10;39.10;;;;;;5072193;28;20040;-84
2021/01/15 08:51:07;;;;;;;2.00;1.10;;;20.10;38.90;;;;;;5075708;28;20028;-84
2021/01/15 08:53:43;;;;;;;1.88;1.20;;;20.20;38.70;;;;;;5066161;28;20120;-85
2021/01/15 08:56:11;;;;;;;1.55;1.40;;;20.30;38.60;;;;;;5080703;28;20024;-83
2021/01/15 08:58:48;;;;;;;4.57;2.10;;;20.50;38.40;;;;;;5069336;28;20081;-83
2021/01/15 09:01:30;;;;;;;2.88;1.60;;;20.60;38.30;;;;;;5070077;28;20109;-82
2021/01/15 09:03:59;;;;;;;2.13;1.48;;;20.60;38.00;;;;;;5082320;28;20020;-82
2021/01/15 09:06:27;;;;;;;2.05;1.67;;;20.70;38.10;;;;;;5094367;28;20556;-82
2021/01/15 09:08:56;;;;;;;1.50;1.17;;;20.80;38.10;;;;;;5066737;28;20056;-81
2021/01/15 09:11:30;;;;;;;1.73;1.48;;;20.90;38.00;;;;;;5065278;28;20108;-82
2021/01/15 09:13:58;;;;;;;1.48;1.38;;;20.90;38.60;;;;;;5088955;28;20056;-81
2021/01/15 09:16:25;;;;;;;1.95;1.63;;;20.90;38.00;;;;;;5062027;28;20017;-82
2021/01/15 09:18:52;;;;;;;3.13;1.65;;;20.90;38.10;;;;;;5068302;28;20103;-84
2021/01/15 09:21:18;;;;;;;1.75;1.25;;;20.90;38.10;;;;;;5069045;28;20025;-84
2021/01/15 09:23:44;;;;;;;1.83;1.30;;;20.90;38.10;;;;;;5078049;28;20025;-81
2021/01/15 09:26:10;;;;;;;1.80;1.25;;;21.00;38.10;;;;;;5068024;28;20081;-87
2021/01/15 09:28:36;;;;;;;2.00;1.10;;;21.00;38.60;;;;;;5072710;28;20109;-86
2021/01/15 09:31:20;;;;;;;1.90;1.42;;;21.00;38.10;;;;;;5086101;28;20466;-84
2021/01/15 09:33:51;;;;;;;1.92;1.73;;;21.00;38.00;;;;;;5080747;28;20107;-83
2021/01/15 09:36:27;;;;;;;2.00;1.48;;;21.10;37.90;;;;;;5067424;28;20086;-84
2021/01/15 09:38:56;;;;;;;1.35;1.25;;;21.10;38.00;;;;;;5086773;28;20372;-83
2021/01/15 09:41:22;;;;;;;2.33;1.30;;;21.20;37.90;;;;;;5068981;28;20139;-85
2021/01/15 09:43:53;;;;;;;1.95;1.50;;;21.20;38.10;;;;;;5088611;28;20033;-87
2021/01/15 09:46:24;;;;;;;2.85;1.38;;;21.20;38.00;;;;;;5067623;28;20027;-85
2021/01/15 09:48:50;;;;;;;2.28;1.27;;;21.20;38.00;;;;;;5077060;28;20110;-85
2021/01/15 09:51:19;;;;;;;2.47;1.80;;;21.30;37.90;;;;;;5067380;28;20486;-83
2021/01/15 09:53:44;;;;;;;2.03;1.73;;;21.30;38.00;;;;;;5070142;28;20024;-83
2021/01/15 09:56:10;;;;;;;2.25;1.60;;;21.30;37.90;;;;;;5075263;28;20078;-87
2021/01/15 09:58:36;;;;;;;1.63;1.33;;;21.20;38.00;;;;;;5085372;28;20198;-83
2021/01/15 10:01:01;;;;;;;1.70;1.50;;;21.20;38.10;;;;;;5090901;28;20028;-83
2021/01/15 10:03:30;;;;;;;1.98;1.15;;;21.20;38.30;;;;;;5068659;28;20048;-85
2021/01/15 10:05:55;;;;;;;1.80;1.30;;;21.10;38.30;;;;;;5092662;28;20689;-82
2021/01/15 10:08:24;;;;;;;1.90;1.70;;;21.10;38.50;;;;;;5078599;28;20021;-83
2021/01/15 10:10:50;;;;;;;2.22;1.73;;;21.00;38.60;;;;;;5080912;28;20028;-88
2021/01/15 10:13:15;;;;;;;2.45;1.67;;;21.00;38.50;;;;;;5087443;28;20024;-81
2021/01/15 10:15:41;;;;;;;2.25;1.95;;;21.00;38.50;;;;;;5075649;28;20028;-81
2021/01/15 10:18:07;;;;;;;2.95;1.48;;;20.90;38.20;;;;;;5073981;28;20027;-83
2021/01/15 10:20:32;;;;;;;2.08;1.20;;;20.90;38.20;;;;;;5075060;28;20020;-81
2021/01/15 10:22:58;;;;;;;3.17;1.35;;;21.00;38.20;;;;;;5071589;28;20038;-82
2021/01/15 10:25:23;;;;;;;2.20;1.73;;;20.90;38.00;;;;;;5065040;28;20016;-82
2021/01/15 10:27:49;;;;;;;8.38;2.17;;;20.90;38.10;;;;;;5060557;28;20013;-82
2021/01/15 10:30:15;;;;;;;1.73;1.55;;;20.90;38.10;;;;;;5080516;28;20047;-82
2021/01/15 10:32:46;;;;;;;3.92;1.40;;;20.90;38.10;;;;;;5079854;28;20020;-81
2021/01/15 10:35:12;;;;;;;5.00;1.73;;;20.90;38.10;;;;;;5087162;28;20039;-81
2021/01/15 10:37:39;;;;;;;2.17;1.80;;;20.80;38.00;;;;;;5065954;28;20024;-83
2021/01/15 10:40:06;;;;;;;3.08;1.40;;;20.90;37.90;;;;;;5064008;28;20034;-82
2021/01/15 10:42:40;;;;;;;1.35;1.17;;;21.00;38.00;;;;;;5082064;28;20058;-84
2021/01/15 10:45:06;;;;;;;1.80;1.70;;;21.00;37.80;;;;;;5072590;28;20060;-84
2021/01/15 10:47:32;;;;;;;2.25;1.38;;;21.10;37.90;;;;;;5081374;28;20038;-81
2021/01/15 10:49:57;;;;;;;1.60;1.02;;;21.20;37.90;;;;;;5084806;28;20055;-81
2021/01/15 10:52:23;;;;;;;2.95;1.23;;;21.30;37.80;;;;;;5073383;28;20021;-83
2021/01/15 10:54:48;;;;;;;2.15;1.30;;;21.40;37.90;;;;;;5077917;28;20020;-83
2021/01/15 10:57:14;;;;;;;1.33;1.15;;;21.40;37.90;;;;;;5086032;28;20036;-82
2021/01/15 10:59:40;;;;;;;1.48;1.10;;;21.50;37.60;;;;;;5100350;28;20024;-85
2021/01/15 11:02:05;;;;;;;1.17;0.90;;;21.50;37.70;;;;;;5076854;28;20032;-85
2021/01/15 11:04:31;;;;;;;1.10;0.88;;;21.40;37.60;;;;;;5070423;28;20227;-83
2021/01/15 11:06:56;;;;;;;1.67;1.33;;;21.50;37.80;;;;;;5070579;28;20096;-82
2021/01/15 11:09:23;;;;;;;2.00;1.10;;;21.50;37.90;;;;;;5086750;28;20046;-81
2021/01/15 11:11:50;;;;;;;2.20;1.08;;;21.50;37.90;;;;;;5086971;28;20032;-81
2021/01/15 11:14:16;;;;;;;1.60;1.33;;;21.50;37.90;;;;;;5090755;28;20024;-82
2021/01/15 11:16:42;;;;;;;1.30;1.05;;;21.50;37.90;;;;;;5069692;28;20016;-82
2021/01/15 11:19:08;;;;;;;1.92;1.20;;;21.60;37.90;;;;;;5087259;28;20024;-83
2021/01/15 11:21:34;;;;;;;1.80;1.00;;;21.60;37.90;;;;;;5071217;28;20037;-82
2021/01/15 11:23:59;;;;;;;1.25;1.00;;;21.60;37.90;;;;;;5082334;28;20502;-84
2021/01/15 11:26:27;;;;;;;1.25;0.95;;;21.70;37.90;;;;;;5067130;28;20028;-84
2021/01/15 11:28:54;;;;;;;1.88;1.00;;;21.70;37.90;;;;;;5070452;28;20024;-83
2021/01/15 11:31:20;;;;;;;1.75;1.05;;;21.70;37.90;;;;;;5077647;28;20052;-82
2021/01/15 11:33:47;;;;;;;2.05;1.10;;;21.70;37.80;;;;;;5069098;28;20031;-85
2021/01/15 11:36:13;;;;;;;1.60;1.17;;;21.70;37.90;;;;;;5080363;28;20021;-86
2021/01/15 11:38:40;;;;;;;1.50;1.05;;;21.70;38.20;;;;;;5065637;28;20463;-85
2021/01/15 11:41:06;;;;;;;2.10;1.20;;;21.70;38.20;;;;;;5070102;28;20024;-85
2021/01/15 11:43:35;;;;;;;2.17;1.05;;;21.70;38.30;;;;;;5072090;28;20017;-84
2021/01/15 11:46:02;;;;;;;1.30;0.90;;;21.60;38.30;;;;;;5084129;28;20033;-82
2021/01/15 11:48:33;;;;;;;1.38;1.08;;;21.60;38.40;;;;;;5063079;28;20386;-88
2021/01/15 11:51:00;;;;;;;4.30;1.30;;;21.50;38.30;;;;;;5055654;28;20037;-86
2021/01/15 11:53:26;;;;;;;2.85;1.70;;;21.60;38.40;;;;;;5081958;28;20058;-88
2021/01/15 11:55:53;;;;;;;1.88;1.23;;;21.50;38.40;;;;;;5097000;28;20036;-87
2021/01/15 11:58:23;;;;;;;1.15;1.05;;;21.60;38.30;;;;;;5074126;28;20089;-87
2021/01/15 12:00:48;;;;;;;1.23;0.90;;;21.60;38.20;;;;;;5073481;28;20040;-87
2021/01/15 12:03:15;;;;;;;1.80;1.08;;;21.60;38.20;;;;;;5073371;28;20028;-86
2021/01/15 12:05:41;;;;;;;1.17;0.98;;;21.60;38.10;;;;;;5092315;28;20051;-88
2021/01/15 12:08:07;;;;;;;2.15;1.50;;;21.70;38.10;;;;;;5081548;28;20027;-87
2021/01/15 12:10:32;;;;;;;2.58;1.60;;;21.70;38.10;;;;;;5074536;28;20024;-83
2021/01/15 12:13:01;;;;;;;2.40;1.48;;;21.60;38.00;;;;;;5079331;28;20020;-86
2021/01/15 12:15:27;;;;;;;1.88;1.70;;;21.60;38.00;;;;;;5074613;28;20073;-86
2021/01/15 12:17:53;;;;;;;3.75;1.70;;;21.60;38.20;;;;;;5094605;28;20104;-82
2021/01/15 12:20:19;;;;;;;1.20;1.10;;;21.50;38.30;;;;;;5090253;28;20281;-83
2021/01/15 12:22:47;;;;;;;2.25;1.55;;;21.40;38.50;;;;;;5066731;28;20175;-82
2021/01/15 12:25:13;;;;;;;3.25;1.67;;;21.30;38.70;;;;;;5074688;28;20024;-83
2021/01/15 12:27:38;;;;;;;1.50;1.17;;;21.30;38.90;;;;;;5082546;28;20147;-84
2021/01/15 12:30:05;;;;;;;3.40;1.85;;;21.20;38.90;;;;;;5085242;28;20455;-83
2021/01/15 12:32:31;;;;;;;2.85;1.30;;;21.20;38.90;;;;;;5068611;28;20020;-85
2021/01/15 12:34:57;;;;;;;2.80;1.58;;;21.20;38.70;;;;;;5071337;28;20128;-87
2021/01/15 12:37:26;;;;;;;1.33;1.23;;;21.20;38.90;;;;;;5083898;28;20021;-87
2021/01/15 12:39:53;;;;;;;4.78;2.00;;;21.20;38.80;;;;;;5067056;28;20024;-85
2021/01/15 12:42:19;;;;;;;4.28;1.40;;;21.20;38.80;;;;;;5074463;28;20059;-86
2021/01/15 12:44:45;;;;;;;1.80;1.23;;;21.20;38.80;;;;;;5079900;28;20032;-82
2021/01/15 12:47:10;;;;;;;1.55;1.20;;;21.10;38.90;;;;;;5090967;28;20036;-84
2021/01/15 12:49:36;;;;;;;2.63;1.20;;;21.10;39.00;;;;;;5074360;28;20127;-85
2021/01/15 12:52:02;;;;;;;2.22;1.38;;;21.30;39.00;;;;;;5086403;28;20032;-84
2021/01/15 12:54:27;;;;;;;2.55;1.30;;;21.40;38.80;;;;;;5091592;28;20055;-84
2021/01/15 12:56:53;;;;;;;2.00;1.58;;;21.40;38.60;;;;;;5088747;28;20384;-87
2021/01/15 12:59:18;;;;;;;3.13;1.35;;;21.50;38.40;;;;;;5067820;28;20525;-83